createdAt,value
2023-05-21T00:00:36.209Z,85.90
2023-05-21T00:01:32.736Z,86.88
2023-05-21T00:02:30.225Z,86.11
2023-05-21T00:03:28.498Z,84.17
2023-05-21T00:04:25.563Z,82.74
2023-05-21T00:05:22.136Z,85.17
2023-05-21T00:06:20.851Z,84.70
2023-05-21T00:07:17.521Z,84.82
2023-05-21T00:08:14.242Z,83.74
2023-05-21T00:09:13.007Z,84.78
2023-05-21T00:10:09.721Z,83.40
2023-05-21T00:11:06.987Z,84.42
2023-05-21T00:12:03.762Z,85.07
2023-05-21T00:13:00.415Z,83.80
2023-05-21T00:13:57.107Z,81.52
2023-05-21T00:14:53.768Z,79.47
2023-05-21T00:15:50.537Z,79.15
2023-05-21T00:16:47.279Z,78.47
2023-05-21T00:17:44.214Z,77.67
2023-05-21T00:18:40.905Z,78.40
2023-05-21T00:19:37.422Z,76.64
2023-05-21T00:20:33.996Z,77.38
2023-05-21T00:21:31.768Z,76.22
2023-05-21T00:22:28.340Z,76.39
2023-05-21T00:23:26.314Z,75.05
2023-05-21T00:24:22.931Z,76.49
2023-05-21T00:25:19.433Z,76.33
2023-05-21T00:26:16.115Z,77.32
2023-05-21T00:27:13.432Z,76.38
2023-05-21T00:28:09.939Z,75.11
2023-05-21T00:29:06.513Z,75.95
2023-05-21T00:30:03.766Z,75.12
2023-05-21T00:31:00.672Z,75.67
2023-05-21T00:31:57.306Z,76.51
2023-05-21T00:32:53.889Z,77.53
2023-05-21T00:33:50.804Z,79.45
2023-05-21T00:34:47.394Z,79.75
2023-05-21T00:35:44.102Z,81.79
2023-05-21T00:36:40.698Z,83.00
2023-05-21T00:37:38.200Z,79.18
2023-05-21T00:38:34.896Z,79.15
2023-05-21T00:39:31.405Z,77.27
2023-05-21T00:40:27.935Z,77.47
2023-05-21T00:41:26.023Z,79.07
2023-05-21T00:42:27.403Z,79.30
2023-05-21T00:43:26.609Z,80.79
2023-05-21T00:44:23.856Z,82.33
2023-05-21T00:45:20.503Z,83.83
2023-05-21T00:46:18.321Z,82.91
2023-05-21T00:47:18.352Z,82.85
2023-05-21T00:48:14.994Z,83.68
2023-05-21T00:49:11.740Z,83.84
2023-05-21T00:50:08.814Z,80.55
2023-05-21T00:51:06.254Z,79.48
2023-05-21T00:52:02.821Z,80.27
2023-05-21T00:52:59.884Z,81.13
2023-05-21T00:53:56.789Z,81.01
2023-05-21T00:54:53.662Z,78.33
2023-05-21T00:55:50.820Z,79.49
2023-05-21T00:56:47.722Z,77.62
2023-05-21T00:57:44.309Z,77.58
2023-05-21T00:58:41.094Z,77.13
2023-05-21T00:59:37.762Z,78.71
2023-05-21T01:00:34.907Z,79.22
2023-05-21T01:01:34.038Z,78.05
2023-05-21T01:02:34.614Z,79.04
2023-05-21T01:03:31.259Z,81.00
2023-05-21T01:04:27.846Z,77.75
2023-05-21T01:05:24.489Z,77.34
2023-05-21T01:06:21.035Z,77.18
2023-05-21T01:07:18.610Z,77.35
2023-05-21T01:08:15.185Z,78.58
2023-05-21T01:09:12.012Z,80.40
2023-05-21T01:10:09.560Z,80.94
2023-05-21T01:11:07.157Z,81.38
2023-05-21T01:12:04.252Z,80.06
2023-05-21T01:13:01.397Z,80.35
2023-05-21T01:13:58.033Z,80.07
2023-05-21T01:14:54.618Z,81.07
2023-05-21T01:15:51.390Z,81.15
2023-05-21T01:16:49.757Z,80.64
2023-05-21T01:17:47.136Z,82.61
2023-05-21T01:18:45.399Z,82.29
2023-05-21T01:19:44.499Z,80.75
2023-05-21T01:20:42.590Z,79.72
2023-05-21T01:21:53.184Z,82.14
2023-05-21T01:22:53.991Z,82.21
2023-05-21T01:23:50.748Z,82.23
2023-05-21T01:24:49.784Z,81.67
2023-05-21T01:25:47.003Z,82.22
2023-05-21T01:26:44.300Z,81.50
2023-05-21T01:27:41.646Z,81.21
2023-05-21T01:28:38.448Z,82.55
2023-05-21T01:29:34.995Z,83.67
2023-05-21T01:30:31.663Z,81.99
2023-05-21T01:31:31.744Z,83.02
2023-05-21T01:32:28.401Z,84.44
2023-05-21T01:33:40.137Z,84.79
2023-05-21T01:34:51.050Z,84.55
2023-05-21T01:35:53.155Z,83.44
2023-05-21T01:36:53.644Z,82.95
2023-05-21T01:37:55.849Z,82.65
2023-05-21T01:39:04.818Z,82.20
2023-05-21T01:40:21.656Z,80.95
2023-05-21T01:41:19.495Z,79.22
2023-05-21T01:42:16.900Z,77.50
2023-05-21T01:43:14.346Z,78.78
2023-05-21T01:44:11.143Z,80.19
2023-05-21T01:45:08.573Z,79.83
2023-05-21T01:46:07.890Z,82.03
2023-05-21T01:47:05.001Z,83.74
2023-05-21T01:48:01.628Z,84.16
2023-05-21T01:48:58.236Z,84.04
2023-05-21T01:49:55.350Z,83.68
2023-05-21T01:50:53.036Z,82.62
2023-05-21T01:51:49.752Z,83.41
2023-05-21T01:52:52.758Z,84.20
2023-05-21T01:53:49.262Z,84.10
2023-05-21T01:54:45.827Z,85.37
2023-05-21T01:55:42.572Z,86.35
2023-05-21T01:56:39.222Z,85.75
2023-05-21T01:57:35.773Z,85.72
2023-05-21T01:58:32.388Z,85.31
2023-05-21T01:59:30.080Z,85.73
2023-05-21T02:00:29.571Z,86.21
2023-05-21T02:01:27.166Z,85.97
2023-05-21T02:02:23.742Z,86.34
2023-05-21T02:03:21.916Z,85.77
2023-05-21T02:04:18.549Z,84.86
2023-05-21T02:05:15.106Z,85.61
2023-05-21T02:06:11.700Z,85.48
2023-05-21T02:07:08.248Z,86.08
2023-05-21T02:08:05.522Z,84.58
2023-05-21T02:09:02.446Z,84.55
2023-05-21T02:09:58.966Z,82.90
2023-05-21T02:10:55.710Z,82.56
2023-05-21T02:11:52.245Z,83.27
2023-05-21T02:12:48.751Z,83.94
2023-05-21T02:13:46.244Z,84.33
2023-05-21T02:14:42.960Z,82.47
2023-05-21T02:15:40.285Z,81.61
2023-05-21T02:16:38.521Z,80.88
2023-05-21T02:17:35.416Z,80.75
2023-05-21T02:18:31.936Z,80.92
2023-05-21T02:19:28.565Z,80.16
2023-05-21T02:20:25.305Z,81.74
2023-05-21T02:21:21.852Z,80.47
2023-05-21T02:22:18.353Z,80.29
2023-05-21T02:23:14.922Z,81.21
2023-05-21T02:24:11.584Z,81.83
2023-05-21T02:25:09.033Z,83.16
2023-05-21T02:26:05.669Z,83.42
2023-05-21T02:27:02.990Z,83.69
2023-05-21T02:27:59.580Z,85.62
2023-05-21T02:28:56.130Z,83.43
2023-05-21T02:29:52.607Z,84.09
2023-05-21T02:30:49.197Z,82.39
2023-05-21T02:31:45.888Z,81.30
2023-05-21T02:32:43.641Z,81.97
2023-05-21T02:33:40.975Z,80.61
2023-05-21T02:34:42.419Z,79.22
2023-05-21T02:35:39.229Z,81.12
2023-05-21T02:36:36.163Z,83.15
2023-05-21T02:37:35.661Z,81.81
2023-05-21T02:38:32.720Z,81.04
2023-05-21T02:39:29.348Z,82.26
2023-05-21T02:40:25.937Z,81.66
2023-05-21T02:41:23.258Z,82.44
2023-05-21T02:42:19.786Z,81.12
2023-05-21T02:43:16.531Z,80.96
2023-05-21T02:44:13.330Z,80.55
2023-05-21T02:45:10.419Z,81.43
2023-05-21T02:46:07.923Z,83.40
2023-05-21T02:47:04.680Z,83.44
2023-05-21T02:48:01.464Z,82.68
2023-05-21T02:48:57.995Z,80.53
2023-05-21T02:49:54.774Z,79.34
2023-05-21T02:50:51.484Z,79.20
2023-05-21T02:51:47.962Z,80.39
2023-05-21T02:52:44.508Z,82.20
2023-05-21T02:53:41.021Z,82.91
2023-05-21T02:54:37.499Z,83.26
2023-05-21T02:55:34.233Z,81.53
2023-05-21T02:56:31.006Z,81.60
2023-05-21T02:57:27.549Z,84.07
2023-05-21T02:58:25.282Z,84.52
2023-05-21T02:59:21.753Z,84.21
2023-05-21T03:00:18.347Z,85.34
2023-05-21T03:01:14.942Z,86.26
2023-05-21T03:02:11.930Z,85.84
2023-05-21T03:03:08.722Z,83.91
2023-05-21T03:04:05.307Z,81.40
2023-05-21T03:05:01.913Z,81.67
2023-05-21T03:05:58.738Z,84.85
2023-05-21T03:06:57.236Z,86.61
2023-05-21T03:07:53.817Z,87.50
2023-05-21T03:08:50.453Z,87.71
2023-05-21T03:09:47.070Z,88.10
2023-05-21T03:10:43.566Z,87.93
2023-05-21T03:11:40.131Z,86.48
2023-05-21T03:12:36.680Z,82.32
2023-05-21T03:13:33.255Z,79.53
2023-05-21T03:14:29.888Z,80.18
2023-05-21T03:15:26.379Z,83.30
2023-05-21T03:16:22.983Z,84.53
2023-05-21T03:17:20.679Z,85.59
2023-05-21T03:18:17.314Z,84.23
2023-05-21T03:19:13.976Z,83.97
2023-05-21T03:20:18.732Z,84.88
2023-05-21T03:21:15.765Z,85.86
2023-05-21T03:22:12.390Z,84.53
2023-05-21T03:23:09.026Z,85.49
2023-05-21T03:24:05.968Z,84.78
2023-05-21T03:25:02.846Z,86.35
2023-05-21T03:25:59.332Z,86.77
2023-05-21T03:26:55.946Z,88.22
2023-05-21T03:27:52.754Z,88.65
2023-05-21T03:28:49.244Z,87.54
2023-05-21T03:29:46.028Z,87.57
2023-05-21T03:30:46.307Z,85.61
2023-05-21T03:31:42.945Z,82.24
2023-05-21T03:32:41.502Z,79.72
2023-05-21T03:33:38.108Z,79.88
2023-05-21T03:34:34.653Z,81.22
2023-05-21T03:35:31.168Z,84.69
2023-05-21T03:36:27.737Z,86.35
2023-05-21T03:37:24.323Z,86.00
2023-05-21T03:38:20.880Z,86.44
2023-05-21T03:39:17.484Z,85.64
2023-05-21T03:40:14.388Z,82.43
2023-05-21T03:41:11.297Z,79.07
2023-05-21T03:42:07.855Z,81.42
2023-05-21T03:43:04.374Z,84.24
2023-05-21T03:44:00.900Z,83.67
2023-05-21T03:44:57.452Z,83.74
2023-05-21T03:45:54.672Z,82.87
2023-05-21T03:46:51.221Z,84.03
2023-05-21T03:47:48.941Z,84.09
2023-05-21T03:48:45.896Z,86.43
2023-05-21T03:49:42.452Z,86.67
2023-05-21T03:50:38.920Z,86.18
2023-05-21T03:51:35.443Z,86.39
2023-05-21T03:52:31.964Z,84.35
2023-05-21T03:53:28.434Z,85.69
2023-05-21T03:54:25.057Z,85.92
2023-05-21T03:55:21.658Z,85.71
2023-05-21T03:56:18.193Z,86.53
2023-05-21T03:57:14.790Z,86.79
2023-05-21T03:58:11.275Z,85.11
2023-05-21T03:59:07.782Z,84.30
2023-05-21T04:00:05.577Z,83.53
2023-05-21T04:01:02.853Z,80.61
2023-05-21T04:01:59.551Z,81.84
2023-05-21T04:02:56.150Z,82.68
2023-05-21T04:03:53.011Z,83.08
2023-05-21T04:04:51.791Z,83.96
2023-05-21T04:05:49.522Z,84.69
2023-05-21T04:06:46.138Z,84.54
2023-05-21T04:07:43.028Z,83.64
2023-05-21T04:08:39.721Z,83.45
2023-05-21T04:09:36.867Z,82.42
2023-05-21T04:10:33.928Z,83.59
2023-05-21T04:11:31.402Z,82.72
2023-05-21T04:12:27.958Z,83.24
2023-05-21T04:13:24.484Z,83.82
2023-05-21T04:14:21.544Z,84.10
2023-05-21T04:15:20.801Z,84.00
2023-05-21T04:16:19.243Z,83.74
2023-05-21T04:17:16.140Z,82.38
2023-05-21T04:18:13.784Z,82.89
2023-05-21T04:19:10.515Z,83.88
2023-05-21T04:20:07.642Z,83.39
2023-05-21T04:21:04.325Z,84.35
2023-05-21T04:22:01.132Z,85.52
2023-05-21T04:22:57.643Z,83.12
2023-05-21T04:23:54.142Z,80.09
2023-05-21T04:24:50.695Z,79.20
2023-05-21T04:25:50.809Z,80.31
2023-05-21T04:26:48.213Z,81.98
2023-05-21T04:27:47.774Z,82.85
2023-05-21T04:28:45.866Z,81.67
2023-05-21T04:29:42.948Z,84.49
2023-05-21T04:30:39.455Z,80.87
2023-05-21T04:31:36.121Z,76.72
2023-05-21T04:32:34.989Z,79.35
2023-05-21T04:33:31.737Z,78.82
2023-05-21T04:34:28.339Z,79.17
2023-05-21T04:35:24.952Z,83.01
2023-05-21T04:36:21.502Z,82.67
2023-05-21T04:37:18.032Z,81.31
2023-05-21T04:38:19.658Z,78.47
2023-05-21T04:39:17.115Z,78.94
2023-05-21T04:40:18.261Z,82.80
2023-05-21T04:41:15.013Z,83.51
2023-05-21T04:42:11.616Z,82.37
2023-05-21T04:43:08.280Z,84.49
2023-05-21T04:44:08.179Z,83.25
2023-05-21T04:45:06.432Z,81.24
2023-05-21T04:46:02.933Z,80.19
2023-05-21T04:47:00.600Z,82.90
2023-05-21T04:48:00.753Z,80.97
2023-05-21T04:48:58.232Z,83.52
2023-05-21T04:49:54.772Z,83.81
2023-05-21T04:50:52.092Z,80.81
2023-05-21T04:51:49.517Z,80.91
2023-05-21T04:52:46.117Z,79.78
2023-05-21T04:53:42.669Z,81.93
2023-05-21T04:54:41.994Z,81.88
2023-05-21T04:55:40.004Z,82.26
2023-05-21T04:56:36.621Z,82.37
2023-05-21T04:57:33.170Z,82.70
2023-05-21T04:58:29.736Z,80.66
2023-05-21T04:59:26.416Z,80.93
2023-05-21T05:00:26.203Z,81.38
2023-05-21T05:01:29.633Z,80.18
2023-05-21T05:02:26.248Z,76.62
2023-05-21T05:03:22.936Z,78.33
2023-05-21T05:04:19.593Z,77.21
2023-05-21T05:05:16.072Z,78.67
2023-05-21T05:06:12.546Z,80.31
2023-05-21T05:07:09.072Z,79.74
2023-05-21T05:08:05.777Z,80.45
2023-05-21T05:09:02.353Z,81.33
2023-05-21T05:09:58.874Z,80.43
2023-05-21T05:10:55.423Z,78.31
2023-05-21T05:11:51.932Z,76.78
2023-05-21T05:12:48.544Z,76.45
2023-05-21T05:13:45.047Z,82.26
2023-05-21T05:14:41.686Z,84.63
2023-05-21T05:15:38.439Z,81.55
2023-05-21T05:16:35.674Z,81.90
2023-05-21T05:17:32.314Z,79.91
2023-05-21T05:18:29.544Z,80.05
2023-05-21T05:19:26.822Z,82.78
2023-05-21T05:20:23.528Z,79.93
2023-05-21T05:21:22.025Z,78.24
2023-05-21T05:22:18.571Z,79.91
2023-05-21T05:23:15.216Z,79.50
2023-05-21T05:24:11.944Z,78.60
2023-05-21T05:25:08.740Z,78.21
2023-05-21T05:26:05.384Z,76.49
2023-05-21T05:27:01.885Z,78.02
2023-05-21T05:27:58.469Z,77.46
2023-05-21T05:28:54.993Z,70.97
2023-05-21T05:29:51.751Z,69.69
2023-05-21T05:30:48.315Z,69.91
2023-05-21T05:31:44.959Z,71.89
2023-05-21T05:32:41.630Z,75.29
2023-05-21T05:33:38.302Z,73.28
2023-05-21T05:34:35.092Z,75.44
2023-05-21T05:35:31.582Z,77.42
2023-05-21T05:36:28.181Z,73.17
2023-05-21T05:37:24.864Z,74.17
2023-05-21T05:38:21.417Z,73.91
2023-05-21T05:39:17.961Z,74.27
2023-05-21T05:40:14.693Z,73.80
2023-05-21T05:41:11.260Z,73.60
2023-05-21T05:42:07.810Z,71.93
2023-05-21T05:43:04.304Z,73.18
2023-05-21T05:44:00.795Z,73.88
2023-05-21T05:44:57.365Z,73.91
2023-05-21T05:45:53.922Z,72.40
2023-05-21T05:46:50.460Z,71.28
2023-05-21T05:47:47.017Z,71.52
2023-05-21T05:48:43.592Z,70.82
2023-05-21T05:49:40.676Z,72.40
2023-05-21T05:50:37.201Z,71.56
2023-05-21T05:51:33.754Z,71.37
2023-05-21T05:52:30.549Z,72.37
2023-05-21T05:53:27.159Z,72.21
2023-05-21T05:54:23.749Z,71.23
2023-05-21T05:55:22.089Z,72.79
2023-05-21T05:56:18.677Z,70.82
2023-05-21T05:57:15.158Z,71.89
2023-05-21T05:58:11.759Z,72.41
2023-05-21T05:59:08.238Z,74.78
2023-05-21T06:00:05.151Z,71.99
2023-05-21T06:01:02.122Z,71.65
2023-05-21T06:01:58.608Z,71.09
2023-05-21T06:02:55.247Z,70.77
2023-05-21T06:03:52.302Z,71.13
2023-05-21T06:04:48.900Z,72.97
2023-05-21T06:05:45.573Z,74.03
2023-05-21T06:06:42.184Z,73.15
2023-05-21T06:07:38.761Z,71.58
2023-05-21T06:08:38.035Z,71.28
2023-05-21T06:09:34.821Z,69.91
2023-05-21T06:10:31.421Z,66.86
2023-05-21T06:11:28.016Z,68.37
2023-05-21T06:12:25.322Z,68.79
2023-05-21T06:13:21.839Z,64.00
2023-05-21T06:14:18.518Z,67.58
2023-05-21T06:15:15.200Z,69.42
2023-05-21T06:16:11.788Z,68.77
2023-05-21T06:17:08.386Z,65.37
2023-05-21T06:18:04.968Z,66.63
2023-05-21T06:19:01.602Z,64.59
2023-05-21T06:19:58.131Z,67.80
2023-05-21T06:20:54.774Z,68.25
2023-05-21T06:21:51.391Z,68.58
2023-05-21T06:22:48.049Z,68.07
2023-05-21T06:23:44.582Z,67.04
2023-05-21T06:24:41.109Z,66.04
2023-05-21T06:25:38.239Z,67.11
2023-05-21T06:26:35.177Z,67.65
2023-05-21T06:27:32.169Z,65.34
2023-05-21T06:28:28.689Z,64.46
2023-05-21T06:29:25.211Z,66.70
2023-05-21T06:30:21.830Z,64.62
2023-05-21T06:31:18.904Z,64.89
2023-05-21T06:32:15.521Z,65.02
2023-05-21T06:33:12.800Z,64.49
2023-05-21T06:34:10.689Z,61.65
2023-05-21T06:35:07.798Z,62.69
2023-05-21T06:36:04.443Z,63.78
2023-05-21T06:37:01.085Z,57.63
2023-05-21T06:37:57.655Z,59.33
2023-05-21T06:38:54.218Z,60.58
2023-05-21T06:39:50.742Z,60.82
2023-05-21T06:40:47.944Z,59.67
2023-05-21T06:41:44.437Z,60.77
2023-05-21T06:42:41.022Z,57.46
2023-05-21T06:43:37.631Z,58.11
2023-05-21T06:44:34.175Z,59.29
2023-05-21T06:45:30.790Z,59.33
2023-05-21T06:46:27.474Z,56.78
2023-05-21T06:47:24.287Z,58.16
2023-05-21T06:48:20.798Z,56.42
2023-05-21T06:49:17.392Z,57.26
2023-05-21T06:50:13.925Z,58.56
2023-05-21T06:51:10.500Z,57.72
2023-05-21T06:52:07.100Z,57.49
2023-05-21T06:53:03.992Z,58.73
2023-05-21T06:54:00.665Z,55.71
2023-05-21T06:54:57.208Z,58.29
2023-05-21T06:55:54.036Z,58.27
2023-05-21T06:56:50.575Z,57.74
2023-05-21T06:57:47.212Z,58.59
2023-05-21T06:58:43.853Z,58.24
2023-05-21T06:59:40.435Z,60.01
2023-05-21T07:00:37.200Z,58.74
2023-05-21T07:01:34.540Z,57.83
2023-05-21T07:02:31.269Z,57.92
2023-05-21T07:03:28.141Z,56.71
2023-05-21T07:04:24.863Z,57.10
2023-05-21T07:05:21.397Z,55.65
2023-05-21T07:06:18.301Z,56.38
2023-05-21T07:07:14.927Z,55.71
2023-05-21T07:08:12.181Z,56.69
2023-05-21T07:09:08.984Z,57.98
2023-05-21T07:10:05.839Z,57.47
2023-05-21T07:11:02.376Z,56.13
2023-05-21T07:11:58.981Z,56.33
2023-05-21T07:12:55.515Z,53.83
2023-05-21T07:13:52.180Z,53.93
2023-05-21T07:14:48.706Z,51.16
2023-05-21T07:15:45.518Z,52.53
2023-05-21T07:16:42.302Z,51.91
2023-05-21T07:17:38.969Z,50.46
2023-05-21T07:18:35.471Z,50.66
2023-05-21T07:19:32.514Z,49.65
2023-05-21T07:20:29.275Z,50.19
2023-05-21T07:21:25.775Z,50.59
2023-05-21T07:22:22.276Z,50.60
2023-05-21T07:23:18.741Z,49.10
2023-05-21T07:24:15.594Z,49.34
2023-05-21T07:25:12.060Z,51.21
2023-05-21T07:26:10.219Z,49.14
2023-05-21T07:27:17.781Z,49.82
2023-05-21T07:28:21.136Z,50.03
2023-05-21T07:29:17.625Z,49.18
2023-05-21T07:30:14.392Z,47.76
2023-05-21T07:31:12.403Z,50.13
2023-05-21T07:32:09.043Z,53.17
2023-05-21T07:33:05.791Z,49.78
2023-05-21T07:34:02.366Z,48.83
2023-05-21T07:35:01.964Z,49.30
2023-05-21T07:35:58.588Z,49.62
2023-05-21T07:36:55.229Z,50.32
2023-05-21T07:37:51.939Z,49.34
2023-05-21T07:38:48.480Z,49.09
2023-05-21T07:39:45.047Z,49.46
2023-05-21T07:40:41.546Z,48.80
2023-05-21T07:41:38.137Z,50.42
2023-05-21T07:42:34.927Z,49.25
2023-05-21T07:43:31.742Z,51.42
2023-05-21T07:44:28.399Z,51.33
2023-05-21T07:45:25.039Z,50.25
2023-05-21T07:46:21.570Z,50.31
2023-05-21T07:47:18.296Z,51.16
2023-05-21T07:48:14.838Z,50.09
2023-05-21T07:49:16.716Z,50.50
2023-05-21T07:50:14.105Z,52.30
2023-05-21T07:51:11.588Z,49.34
2023-05-21T07:52:08.261Z,50.03
2023-05-21T07:53:04.867Z,49.52
2023-05-21T07:54:01.598Z,50.27
2023-05-21T07:54:58.186Z,49.53
2023-05-21T07:55:54.657Z,48.84
2023-05-21T07:56:51.200Z,49.89
2023-05-21T07:57:47.711Z,48.80
2023-05-21T07:58:45.995Z,45.70
2023-05-21T07:59:42.721Z,48.06
2023-05-21T08:00:43.361Z,49.50
2023-05-21T08:01:41.084Z,49.61
2023-05-21T08:02:37.690Z,49.46
2023-05-21T08:03:34.570Z,50.69
2023-05-21T08:04:31.620Z,47.86
2023-05-21T08:05:28.243Z,46.25
2023-05-21T08:06:24.799Z,46.46
2023-05-21T08:07:21.985Z,49.27
2023-05-21T08:08:18.911Z,49.51
2023-05-21T08:09:15.515Z,46.04
2023-05-21T08:10:12.071Z,45.73
2023-05-21T08:11:08.674Z,48.57
2023-05-21T08:12:05.351Z,48.80
2023-05-21T08:13:01.864Z,49.53
2023-05-21T08:13:58.460Z,48.87
2023-05-21T08:14:54.973Z,50.52
2023-05-21T08:15:53.563Z,49.25
2023-05-21T08:16:50.403Z,50.46
2023-05-21T08:17:46.963Z,49.64
2023-05-21T08:18:43.506Z,51.53
2023-05-21T08:19:40.354Z,49.01
2023-05-21T08:20:37.040Z,49.21
2023-05-21T08:21:34.639Z,51.59
2023-05-21T08:22:31.140Z,50.87
2023-05-21T08:23:27.768Z,50.44
2023-05-21T08:25:20.947Z,49.17
2023-05-21T08:26:17.548Z,51.10
2023-05-21T08:27:16.200Z,49.94
2023-05-21T08:28:12.732Z,47.96
2023-05-21T08:29:09.390Z,48.66
2023-05-21T08:30:06.211Z,46.82
2023-05-21T08:31:02.871Z,47.90
2023-05-21T08:31:59.376Z,48.36
2023-05-21T08:32:56.135Z,47.42
2023-05-21T08:33:53.609Z,47.40
2023-05-21T08:34:50.246Z,46.02
2023-05-21T08:35:46.769Z,47.72
2023-05-21T08:36:43.401Z,48.75
2023-05-21T08:37:39.928Z,47.97
2023-05-21T08:38:36.588Z,46.35
2023-05-21T08:39:33.198Z,47.95
2023-05-21T08:40:30.927Z,45.62
2023-05-21T08:41:27.970Z,46.13
2023-05-21T08:43:32.338Z,49.02
2023-05-21T08:44:30.796Z,48.23
2023-05-21T08:45:27.761Z,45.19
2023-05-21T08:46:25.244Z,47.48
2023-05-21T08:47:23.948Z,43.92
2023-05-21T08:48:22.445Z,44.31
2023-05-21T08:49:24.538Z,43.67
2023-05-21T08:50:24.308Z,45.73
2023-05-21T08:51:21.218Z,45.70
2023-05-21T08:52:18.281Z,43.75
2023-05-21T08:53:23.910Z,43.38
2023-05-21T08:54:24.431Z,44.36
2023-05-21T08:55:22.334Z,44.04
2023-05-21T08:56:18.823Z,45.19
2023-05-21T08:57:15.568Z,42.25
2023-05-21T08:58:13.720Z,43.13
2023-05-21T08:59:10.207Z,44.00
2023-05-21T09:00:07.409Z,44.03
2023-05-21T09:01:05.079Z,44.62
2023-05-21T09:02:02.179Z,42.42
2023-05-21T09:03:01.269Z,45.46
2023-05-21T09:04:05.000Z,41.96
2023-05-21T09:05:09.826Z,43.32
2023-05-21T09:06:09.290Z,41.44
2023-05-21T09:07:07.013Z,44.75
2023-05-21T09:08:06.808Z,44.04
2023-05-21T09:09:06.663Z,39.87
2023-05-21T09:10:06.072Z,42.84
2023-05-21T09:11:05.375Z,42.55
2023-05-21T09:12:01.986Z,41.32
2023-05-21T09:12:58.792Z,40.69
2023-05-21T09:13:55.702Z,42.00
2023-05-21T09:14:52.428Z,40.67
2023-05-21T09:15:49.006Z,39.26
2023-05-21T09:16:48.340Z,40.71
2023-05-21T09:17:50.902Z,43.32
2023-05-21T09:18:47.449Z,39.48
2023-05-21T09:20:04.895Z,40.38
2023-05-21T09:21:21.380Z,41.81
2023-05-21T09:22:18.077Z,41.15
2023-05-21T09:23:17.309Z,39.87
2023-05-21T09:24:14.210Z,40.58
2023-05-21T09:25:11.797Z,38.91
2023-05-21T09:26:11.380Z,40.82
2023-05-21T09:27:08.101Z,39.69
2023-05-21T09:28:11.205Z,40.53
2023-05-21T09:29:07.743Z,40.50
2023-05-21T09:30:05.116Z,38.41
2023-05-21T09:31:03.293Z,41.80
2023-05-21T09:32:05.871Z,38.76
2023-05-21T09:33:03.393Z,40.83
2023-05-21T09:34:00.232Z,39.15
2023-05-21T09:34:56.766Z,40.41
2023-05-21T09:35:53.358Z,40.29
2023-05-21T09:36:50.008Z,39.89
2023-05-21T09:37:50.591Z,40.73
2023-05-21T09:38:52.105Z,39.18
2023-05-21T09:39:48.962Z,40.90
2023-05-21T09:40:46.699Z,40.04
2023-05-21T09:41:43.268Z,41.15
2023-05-21T09:42:40.184Z,38.94
2023-05-21T09:43:37.149Z,41.45
2023-05-21T09:44:34.796Z,40.41
2023-05-21T09:45:31.364Z,43.47
2023-05-21T09:46:28.114Z,42.47
2023-05-21T09:47:24.727Z,41.46
2023-05-21T09:48:37.924Z,42.79
2023-05-21T09:49:36.973Z,41.83
2023-05-21T09:50:36.415Z,41.39
2023-05-21T09:51:33.243Z,41.07
2023-05-21T09:52:30.536Z,40.66
2023-05-21T09:53:29.160Z,39.37
2023-05-21T09:54:26.504Z,41.18
2023-05-21T09:55:23.935Z,40.12
2023-05-21T09:56:22.515Z,42.40
2023-05-21T09:57:25.663Z,39.91
2023-05-21T09:58:22.481Z,38.28
2023-05-21T09:59:19.395Z,38.44
2023-05-21T10:00:20.168Z,39.19
2023-05-21T10:01:16.990Z,41.67
2023-05-21T10:02:19.119Z,38.55
2023-05-21T10:03:17.158Z,40.34
2023-05-21T10:04:14.098Z,39.33
2023-05-21T10:05:12.116Z,39.99
2023-05-21T10:06:12.291Z,39.75
2023-05-21T10:07:09.058Z,39.25
2023-05-21T10:08:09.042Z,38.86
2023-05-21T10:09:10.746Z,38.71
2023-05-21T10:10:08.081Z,38.92
2023-05-21T10:11:05.666Z,38.63
2023-05-21T10:12:02.495Z,40.21
2023-05-21T10:13:09.210Z,38.97
2023-05-21T10:14:07.489Z,37.29
2023-05-21T10:15:04.879Z,39.75
2023-05-21T10:16:02.788Z,37.88
2023-05-21T10:17:00.834Z,39.39
2023-05-21T10:17:57.760Z,37.63
2023-05-21T10:18:54.513Z,37.15
2023-05-21T10:19:51.390Z,37.78
2023-05-21T10:20:48.246Z,38.18
2023-05-21T10:21:45.927Z,36.63
2023-05-21T10:22:42.591Z,38.25
2023-05-21T10:23:39.549Z,37.02
2023-05-21T10:24:36.931Z,39.95
2023-05-21T10:25:33.626Z,38.60
2023-05-21T10:26:30.180Z,38.64
2023-05-21T10:27:31.374Z,38.83
2023-05-21T10:28:29.389Z,39.92
2023-05-21T10:29:26.097Z,38.59
2023-05-21T10:30:23.522Z,38.30
2023-05-21T10:31:20.177Z,38.22
2023-05-21T10:32:17.160Z,38.55
2023-05-21T10:33:16.645Z,36.56
2023-05-21T10:34:13.900Z,38.70
2023-05-21T10:35:11.773Z,39.88
2023-05-21T10:36:08.389Z,37.53
2023-05-21T10:37:07.979Z,37.73
2023-05-21T10:38:05.051Z,37.00
2023-05-21T10:39:02.043Z,39.51
2023-05-21T10:39:58.626Z,39.11
2023-05-21T10:40:55.813Z,36.48
2023-05-21T10:42:14.041Z,37.46
2023-05-21T10:43:25.706Z,37.71
2023-05-21T10:44:30.117Z,38.51
2023-05-21T10:45:38.959Z,37.34
2023-05-21T10:46:53.772Z,38.59
2023-05-21T10:47:54.502Z,39.38
2023-05-21T10:49:09.812Z,39.12
2023-05-21T10:50:06.406Z,38.92
2023-05-21T10:51:14.971Z,37.30
2023-05-21T10:52:17.324Z,38.58
2023-05-21T10:53:17.038Z,38.75
2023-05-21T10:54:32.276Z,38.76
2023-05-21T10:55:43.214Z,38.62
2023-05-21T10:56:43.361Z,39.74
2023-05-21T10:57:55.532Z,37.29
2023-05-21T10:59:03.085Z,37.02
2023-05-21T11:00:00.217Z,37.97
2023-05-21T11:00:57.363Z,39.13
2023-05-21T11:01:54.257Z,40.22
2023-05-21T11:02:53.130Z,39.17
2023-05-21T11:03:50.479Z,37.60
2023-05-21T11:04:49.439Z,40.54
2023-05-21T11:05:52.968Z,36.07
2023-05-21T11:06:49.617Z,39.30
2023-05-21T11:07:58.803Z,39.49
2023-05-21T11:08:55.937Z,39.17
2023-05-21T11:09:52.759Z,40.81
2023-05-21T11:10:55.903Z,41.70
2023-05-21T11:11:53.735Z,41.28
2023-05-21T11:13:07.352Z,40.87
2023-05-21T11:14:23.789Z,40.80
2023-05-21T11:15:20.532Z,38.47
2023-05-21T11:16:17.587Z,39.58
2023-05-21T11:17:17.172Z,40.52
2023-05-21T11:18:14.146Z,38.55
2023-05-21T11:19:17.011Z,39.92
2023-05-21T11:20:17.300Z,40.04
2023-05-21T11:21:14.847Z,39.43
2023-05-21T11:22:24.878Z,40.14
2023-05-21T11:23:21.422Z,40.12
2023-05-21T11:24:21.049Z,41.29
2023-05-21T11:25:18.701Z,39.59
2023-05-21T11:26:18.898Z,38.89
2023-05-21T11:27:30.494Z,42.34
2023-05-21T11:28:34.077Z,39.37
2023-05-21T11:29:40.540Z,38.30
2023-05-21T11:30:38.958Z,38.42
2023-05-21T11:31:40.103Z,38.47
2023-05-21T11:32:37.865Z,38.85
2023-05-21T11:33:34.389Z,39.54
2023-05-21T11:34:43.933Z,39.46
2023-05-21T11:35:46.272Z,42.11
2023-05-21T11:36:49.402Z,41.49
2023-05-21T11:37:49.763Z,41.43
2023-05-21T11:39:06.202Z,39.08
2023-05-21T11:40:17.721Z,39.98
2023-05-21T11:41:20.001Z,40.75
2023-05-21T11:42:29.652Z,41.07
2023-05-21T11:43:27.289Z,41.69
2023-05-21T11:44:41.934Z,42.48
2023-05-21T11:45:39.414Z,41.41
2023-05-21T11:46:36.169Z,41.34
2023-05-21T11:47:32.993Z,43.77
2023-05-21T11:48:32.405Z,42.68
2023-05-21T11:49:29.274Z,43.41
2023-05-21T11:50:25.853Z,43.73
2023-05-21T11:51:22.609Z,43.74
2023-05-21T11:52:22.400Z,44.29
2023-05-21T11:53:19.273Z,44.48
2023-05-21T11:54:17.927Z,43.15
2023-05-21T11:55:15.862Z,43.24
2023-05-21T11:56:12.961Z,43.72
2023-05-21T11:57:10.318Z,43.80
2023-05-21T11:58:09.140Z,43.44
2023-05-21T11:59:05.885Z,42.02
2023-05-21T12:00:04.577Z,41.95
2023-05-21T12:01:01.140Z,42.86
2023-05-21T12:01:59.294Z,41.54
2023-05-21T12:02:57.433Z,40.17
2023-05-21T12:03:54.308Z,41.08
2023-05-21T12:04:51.616Z,40.63
2023-05-21T12:05:48.649Z,40.67
2023-05-21T12:06:45.389Z,41.29
2023-05-21T12:07:42.474Z,41.78
2023-05-21T12:08:39.060Z,41.76
2023-05-21T12:09:45.789Z,42.29
2023-05-21T12:10:43.037Z,42.79
2023-05-21T12:11:41.784Z,43.08
2023-05-21T12:12:50.567Z,42.28
2023-05-21T12:13:51.213Z,42.92
2023-05-21T12:14:49.109Z,42.94
2023-05-21T12:15:45.660Z,44.58
2023-05-21T12:16:42.211Z,43.30
2023-05-21T12:17:39.325Z,44.36
2023-05-21T12:18:36.604Z,46.14
2023-05-21T12:19:39.369Z,45.17
2023-05-21T12:20:36.109Z,45.87
2023-05-21T12:21:33.135Z,44.76
2023-05-21T12:22:29.912Z,46.30
2023-05-21T12:23:26.571Z,45.64
2023-05-21T12:24:23.076Z,45.32
2023-05-21T12:25:20.609Z,45.83
2023-05-21T12:26:17.463Z,45.41
2023-05-21T12:27:16.928Z,46.03
2023-05-21T12:28:13.576Z,46.54
2023-05-21T12:29:10.204Z,46.71